Time;durP1;ratioP1;P1;durP2;ratioP2;P2;SDS_P1;SDS_P2;PMS_P1;PMS_P2;Temp;Humidity;BMP_temperature;BMP_pressure;BME280_temperature;BME280_humidity;BME280_pressure;Samples;Min_cycle;Max_cycle;Signal;HPM_P1;HPM_P2
2022/05/22 00:00:34;;;;;;;2.90;1.75;;;;;;;12.36;82.55;100167.47;1668133;84;26754;-81
2022/05/22 00:03:04;;;;;;;4.35;1.80;;;;;;;12.34;81.78;100172.22;1664321;84;26392;-80
2022/05/22 00:05:31;;;;;;;3.33;1.75;;;;;;;12.35;81.95;100167.17;1665601;83;25805;-81
2022/05/22 00:07:58;;;;;;;3.67;1.87;;;;;;;12.35;81.67;100171.20;1668702;84;25607;-80
2022/05/22 00:10:24;;;;;;;3.12;1.77;;;;;;;12.34;81.70;100166.34;1692458;84;25887;-80
2022/05/22 00:12:50;;;;;;;4.45;1.90;;;;;;;12.34;81.49;100165.00;1678065;84;25807;-80
2022/05/22 00:15:17;;;;;;;3.85;1.87;;;;;;;12.36;81.36;100164.78;1673824;84;28264;-80
2022/05/22 00:17:44;;;;;;;2.50;1.45;;;;;;;12.38;81.37;100160.05;1667268;84;25765;-80
2022/05/22 00:20:12;;;;;;;4.72;1.70;;;;;;;12.35;81.26;100157.27;1681872;84;25692;-80
2022/05/22 00:22:38;;;;;;;2.58;1.92;;;;;;;12.34;81.15;100161.48;1690173;84;25780;-80
2022/05/22 00:25:10;;;;;;;3.08;1.50;;;;;;;12.33;81.00;100162.53;1665218;84;25824;-79
2022/05/22 00:27:34;;;;;;;3.90;1.72;;;;;;;12.33;81.02;100153.13;1676694;83;27829;-80
2022/05/22 00:30:01;;;;;;;3.02;1.55;;;;;;;12.31;80.86;100158.72;1691047;84;26768;-81
2022/05/22 00:32:27;;;;;;;2.25;1.60;;;;;;;12.32;80.82;100153.64;1677637;84;25952;-80
2022/05/22 00:34:53;;;;;;;4.85;1.60;;;;;;;12.32;80.81;100154.15;1676356;84;25851;-80
2022/05/22 00:37:20;;;;;;;3.35;1.50;;;;;;;12.32;80.63;100159.02;1678910;84;26548;-79
2022/05/22 00:39:46;;;;;;;6.42;1.57;;;;;;;12.35;80.63;100160.46;1667180;84;27460;-80
2022/05/22 00:42:18;;;;;;;2.05;1.65;;;;;;;12.33;80.69;100155.82;1686766;84;25845;-80
2022/05/22 00:44:45;;;;;;;2.65;1.30;;;;;;;12.31;80.54;100158.72;1676412;84;26642;-80
2022/05/22 00:47:12;;;;;;;2.02;1.30;;;;;;;12.30;80.44;100161.08;1683333;84;25948;-80
2022/05/22 00:49:43;;;;;;;2.85;1.20;;;;;;;12.29;80.42;100153.24;1692140;84;25948;-80
2022/05/22 00:52:17;;;;;;;2.60;1.40;;;;;;;12.27;80.34;100153.97;1664548;84;27721;-80
2022/05/22 00:55:06;;;;;;;2.70;1.27;;;;;;;12.26;80.21;100159.02;1664628;84;25878;-80
2022/05/22 00:57:37;;;;;;;1.87;1.40;;;;;;;12.20;80.20;100159.86;1676373;84;25839;-80
2022/05/22 01:00:12;;;;;;;2.25;1.30;;;;;;;12.20;80.20;100162.54;1670986;84;26008;-80
2022/05/22 01:05:25;;;;;;;6.25;1.62;;;;;;;12.15;80.39;100163.67;1688756;83;27505;-81
2022/05/22 01:07:52;;;;;;;1.75;1.10;;;;;;;12.13;80.21;100165.73;1676772;84;25901;-80
2022/05/22 01:10:20;;;;;;;3.42;1.45;;;;;;;12.13;80.14;100173.80;1676191;84;25749;-80
2022/05/22 01:12:49;;;;;;;1.90;1.17;;;;;;;12.09;80.07;100169.36;1666994;84;25819;-80
2022/05/22 01:15:16;;;;;;;2.50;1.30;;;;;;;12.03;80.02;100174.22;1672893;84;25933;-80
2022/05/22 01:17:46;;;;;;;5.53;1.60;;;;;;;12.02;80.19;100177.09;1667655;83;27429;-80
2022/05/22 01:20:15;;;;;;;1.67;1.40;;;;;;;11.96;79.81;100184.13;1672547;84;25874;-80
2022/05/22 01:22:42;;;;;;;3.42;1.40;;;;;;;11.90;79.67;100170.19;1664921;84;26567;-80
2022/05/22 01:25:10;;;;;;;2.65;1.47;;;;;;;11.90;79.76;100178.23;1671169;83;26362;-81
2022/05/22 01:27:37;;;;;;;4.95;1.75;;;;;;;11.86;79.60;100184.22;1664789;84;25818;-81
2022/05/22 01:30:21;;;;;;;2.17;1.30;;;;;;;11.82;79.55;100181.12;1663181;84;28611;-80
2022/05/22 01:32:50;;;;;;;2.47;1.52;;;;;;;11.80;79.57;100185.04;1675325;84;25966;-81
2022/05/22 01:35:25;;;;;;;3.70;1.32;;;;;;;11.84;79.58;100191.14;1671724;84;25813;-80
2022/05/22 01:37:53;;;;;;;3.12;1.05;;;;;;;11.84;79.53;100179.57;1692166;84;26489;-80
2022/05/22 01:40:20;;;;;;;2.35;1.00;;;;;;;11.86;79.66;100178.84;1674295;84;26021;-80
2022/05/22 01:42:49;;;;;;;1.52;0.85;;;;;;;11.86;79.91;100186.39;1664430;84;28318;-79
2022/05/22 01:45:20;;;;;;;1.95;1.20;;;;;;;11.86;79.82;100184.22;1675923;84;25874;-80
2022/05/22 01:47:47;;;;;;;2.47;1.17;;;;;;;11.88;79.92;100180.81;1667060;84;25783;-80
2022/05/22 01:50:14;;;;;;;7.50;1.67;;;;;;;11.88;79.98;100188.35;1692438;84;25839;-80
2022/05/22 01:52:42;;;;;;;6.33;1.45;;;;;;;11.88;79.95;100186.17;1679755;84;25937;-80
2022/05/22 01:55:12;;;;;;;3.17;1.20;;;;;;;11.88;80.09;100187.52;1666523;83;28046;-80
2022/05/22 01:57:41;;;;;;;1.92;1.02;;;;;;;11.86;80.14;100185.05;1664356;84;26525;-81
2022/05/22 02:00:14;;;;;;;1.72;0.90;;;;;;;11.83;80.20;100182.77;1675541;83;25775;-80
2022/05/22 02:02:43;;;;;;;2.65;1.20;;;;;;;11.83;80.34;100187.30;1675501;84;26807;-80
2022/05/22 02:05:11;;;;;;;1.87;1.00;;;;;;;11.82;80.24;100183.81;1682709;84;25818;-79
2022/05/22 02:10:24;;;;;;;2.30;1.15;;;;;;;11.82;80.33;100182.47;1673631;83;25935;-80
2022/05/22 02:12:52;;;;;;;3.33;1.10;;;;;;;11.83;80.12;100178.73;1668923;84;25763;-81
2022/05/22 02:15:18;;;;;;;3.35;1.30;;;;;;;11.84;80.45;100182.25;1664946;84;25958;-80
2022/05/22 02:17:45;;;;;;;3.45;1.07;;;;;;;11.83;80.20;100181.92;1664742;84;25491;-81
2022/05/22 02:20:12;;;;;;;3.65;1.15;;;;;;;11.82;80.06;100186.50;1677702;84;28332;-80
2022/05/22 02:22:43;;;;;;;3.47;1.30;;;;;;;11.82;80.33;100184.31;1664951;84;25839;-80
2022/05/22 02:25:26;;;;;;;1.40;1.00;;;;;;;11.82;80.09;100180.30;1668408;84;25936;-80
2022/05/22 02:27:58;;;;;;;3.77;1.35;;;;;;;11.82;80.54;100183.81;1664370;84;26557;-80
2022/05/22 02:30:32;;;;;;;3.92;1.20;;;;;;;11.82;80.31;100187.83;1660866;84;25866;-81
2022/05/22 02:32:59;;;;;;;0.88;0.75;;;;;;;11.82;80.13;100182.98;1679139;84;27510;-80
2022/05/22 02:35:25;;;;;;;3.52;1.10;;;;;;;11.78;80.13;100179.89;1670985;84;26242;-80
2022/05/22 02:37:55;;;;;;;4.60;1.35;;;;;;;11.77;80.19;100178.73;1674708;84;25978;-80
2022/05/22 02:40:29;;;;;;;1.25;1.05;;;;;;;11.74;80.20;100182.64;1677970;83;26590;-81
2022/05/22 02:42:57;;;;;;;3.40;1.40;;;;;;;11.75;80.32;100180.79;1665056;84;26021;-80
2022/05/22 02:45:29;;;;;;;1.25;1.07;;;;;;;11.74;80.31;100184.52;1664474;84;28305;-81
2022/05/22 02:47:57;;;;;;;1.70;1.15;;;;;;;11.73;80.32;100175.64;1664635;84;25792;-81
2022/05/22 02:50:27;;;;;;;2.62;1.50;;;;;;;11.72;80.54;100182.56;1683422;84;25784;-80
2022/05/22 02:52:55;;;;;;;2.05;1.12;;;;;;;11.73;80.37;100188.22;1691244;84;26553;-80
2022/05/22 02:55:23;;;;;;;2.17;1.37;;;;;;;11.76;80.50;100190.51;1645969;86;25935;-81
2022/05/22 02:57:50;;;;;;;1.22;1.07;;;;;;;11.75;80.50;100189.67;1664852;84;27931;-80
2022/05/22 03:00:25;;;;;;;1.47;1.20;;;;;;;11.78;80.61;100188.45;1641269;84;25861;-80
2022/05/22 03:02:53;;;;;;;3.00;1.20;;;;;;;11.76;80.53;100188.63;1668522;83;25995;-80
2022/05/22 03:05:20;;;;;;;2.92;1.27;;;;;;;11.77;80.53;100190.80;1664203;84;26520;-81
2022/05/22 03:07:48;;;;;;;2.00;1.30;;;;;;;11.75;80.70;100192.36;1666920;84;25848;-81
2022/05/22 03:10:22;;;;;;;3.35;1.45;;;;;;;11.73;80.71;100183.69;1689371;83;27547;-80
2022/05/22 03:12:48;;;;;;;2.20;1.52;;;;;;;11.72;80.84;100194.62;1691748;83;25919;-80
2022/05/22 03:15:16;;;;;;;3.30;1.27;;;;;;;11.72;81.06;100194.09;1694239;83;25767;-80
2022/05/22 03:17:42;;;;;;;2.45;1.70;;;;;;;11.71;81.01;100201.84;1703655;83;26813;-80
2022/05/22 03:20:11;;;;;;;3.72;1.92;;;;;;;11.71;80.94;100190.28;1695866;83;25848;-80
2022/05/22 03:22:38;;;;;;;2.02;1.32;;;;;;;11.69;81.28;100185.64;1701204;83;27475;-81
2022/05/22 03:25:06;;;;;;;4.42;1.85;;;;;;;11.65;81.39;100183.86;1703868;83;26600;-80
2022/05/22 03:27:33;;;;;;;3.85;1.70;;;;;;;11.62;81.54;100195.81;1695908;83;25826;-80
2022/05/22 03:29:59;;;;;;;3.50;1.67;;;;;;;11.57;81.61;100187.53;1701602;83;26349;-80
2022/05/22 03:32:26;;;;;;;2.92;1.90;;;;;;;11.56;81.99;100191.27;1703272;83;25785;-80
2022/05/22 03:34:52;;;;;;;6.80;2.12;;;;;;;11.53;81.81;100189.48;1707547;83;27722;-80
2022/05/22 03:37:19;;;;;;;1.92;1.70;;;;;;;11.55;82.00;100196.30;1703504;83;25839;-81
2022/05/22 03:39:47;;;;;;;2.47;2.12;;;;;;;11.55;82.14;100201.67;1695560;83;25994;-80
2022/05/22 03:42:13;;;;;;;2.15;1.75;;;;;;;11.53;82.05;100201.05;1700328;83;26575;-81
2022/05/22 03:44:39;;;;;;;2.22;1.95;;;;;;;11.54;82.12;100202.72;1702801;83;25759;-81
2022/05/22 03:47:06;;;;;;;3.00;1.87;;;;;;;11.56;82.03;100206.02;1687475;83;27469;-80
2022/05/22 03:49:34;;;;;;;3.02;1.80;;;;;;;11.55;82.04;100203.52;1698971;83;25340;-80
2022/05/22 03:52:03;;;;;;;4.58;2.10;;;;;;;11.54;82.12;100206.73;1691978;83;25976;-81
2022/05/22 03:54:30;;;;;;;2.98;1.47;;;;;;;11.56;82.27;100205.19;1703767;83;26538;-80
2022/05/22 03:56:58;;;;;;;2.92;1.85;;;;;;;11.55;82.69;100202.17;1699758;83;25996;-81
2022/05/22 03:59:30;;;;;;;3.25;1.85;;;;;;;11.51;82.49;100207.13;1701194;83;27656;-80
2022/05/22 04:01:56;;;;;;;1.85;1.72;;;;;;;11.50;82.55;100205.46;1696617;83;26545;-80
2022/05/22 04:04:23;;;;;;;4.55;2.10;;;;;;;11.49;82.42;100208.36;1693271;83;25376;-80
2022/05/22 04:06:50;;;;;;;3.47;1.85;;;;;;;11.49;82.50;100201.14;1698802;83;25989;-80
2022/05/22 04:09:29;;;;;;;4.60;2.65;;;;;;;11.50;82.54;100205.46;1699629;83;25794;-80
2022/05/22 04:12:00;;;;;;;2.20;2.00;;;;;;;11.49;82.64;100202.48;1701992;83;26930;-80
2022/05/22 04:14:26;;;;;;;4.60;2.00;;;;;;;11.47;82.89;100211.25;1698368;83;25784;-81
2022/05/22 04:17:04;;;;;;;2.67;2.05;;;;;;;11.46;83.06;100206.89;1700208;83;26028;-81
2022/05/22 04:19:31;;;;;;;6.03;2.05;;;;;;;11.42;83.11;100205.65;1696432;83;26548;-80
2022/05/22 04:21:58;;;;;;;5.70;1.98;;;;;;;11.41;83.30;100205.36;1698889;83;25984;-81
2022/05/22 04:27:11;;;;;;;3.58;1.98;;;;;;;11.44;83.16;100210.83;1702049;83;26060;-80
2022/05/22 04:29:37;;;;;;;5.40;2.33;;;;;;;11.45;83.17;100195.88;1699044;83;26612;-81
2022/05/22 04:32:05;;;;;;;2.20;1.72;;;;;;;11.48;83.28;100196.80;1695295;83;26661;-80
2022/05/22 04:34:46;;;;;;;2.20;2.00;;;;;;;11.49;83.03;100192.26;1702161;83;25891;-81
2022/05/22 04:37:13;;;;;;;3.50;1.90;;;;;;;11.47;83.06;100205.05;1692417;83;27429;-80
2022/05/22 04:39:43;;;;;;;3.72;1.95;;;;;;;11.45;82.96;100199.06;1701088;83;25340;-79
2022/05/22 04:42:10;;;;;;;5.28;2.40;;;;;;;11.46;83.31;100203.41;1694495;83;25847;-80
2022/05/22 04:44:36;;;;;;;4.62;2.02;;;;;;;11.46;82.96;100202.87;1702218;83;26447;-80
2022/05/22 04:47:04;;;;;;;2.25;1.65;;;;;;;11.48;82.91;100199.47;1690281;83;25338;-80
2022/05/22 04:49:31;;;;;;;3.22;2.05;;;;;;;11.51;83.07;100204.95;1640777;85;27531;-81
2022/05/22 04:51:58;;;;;;;2.90;1.70;;;;;;;11.52;82.82;100200.75;1677043;84;25340;-81
2022/05/22 04:54:25;;;;;;;2.72;1.95;;;;;;;11.54;82.82;100196.52;1681547;84;25820;-80
2022/05/22 04:57:03;;;;;;;3.45;1.77;;;;;;;11.57;82.67;100205.48;1667058;84;25810;-80
2022/05/22 04:59:30;;;;;;;2.17;1.57;;;;;;;11.58;82.91;100199.10;1687618;84;26124;-81
2022/05/22 05:01:56;;;;;;;3.95;1.70;;;;;;;11.62;82.71;100199.00;1678631;84;27460;-80
2022/05/22 05:04:24;;;;;;;2.20;1.50;;;;;;;11.63;82.65;100197.98;1671816;83;25718;-80
2022/05/22 05:06:58;;;;;;;3.58;1.55;;;;;;;11.66;82.61;100193.54;1718901;83;26375;-81
2022/05/22 05:09:39;;;;;;;2.50;1.40;;;;;;;11.71;82.30;100191.62;1633527;83;26017;-81
2022/05/22 05:12:09;;;;;;;3.67;1.35;;;;;;;11.76;82.25;100193.99;1703868;83;25945;-80
2022/05/22 05:14:36;;;;;;;1.70;1.40;;;;;;;11.80;82.28;100183.70;1680270;83;27500;-80
2022/05/22 05:17:11;;;;;;;1.98;1.55;;;;;;;11.83;82.03;100188.12;1704083;83;26472;-80
2022/05/22 05:19:39;;;;;;;3.20;1.30;;;;;;;11.88;82.10;100192.88;1704296;83;25907;-80
2022/05/22 05:22:07;;;;;;;1.60;1.10;;;;;;;11.95;82.07;100195.91;1691827;83;26024;-81
2022/05/22 05:24:33;;;;;;;3.65;1.35;;;;;;;12.00;81.44;100191.23;1702780;83;25739;-81
2022/05/22 05:27:01;;;;;;;2.17;1.30;;;;;;;11.99;81.29;100193.63;1668499;83;28508;-80
2022/05/22 05:29:27;;;;;;;2.45;1.40;;;;;;;12.03;81.36;100194.35;1692095;83;25955;-81
2022/05/22 05:31:54;;;;;;;1.98;1.25;;;;;;;12.09;81.59;100192.19;1702019;83;25794;-80
2022/05/22 05:34:21;;;;;;;3.65;1.80;;;;;;;12.13;81.12;100190.73;1699705;83;25930;-80
2022/05/22 05:36:52;;;;;;;2.80;1.37;;;;;;;12.19;81.20;100199.81;1690586;83;26679;-80
2022/05/22 05:39:27;;;;;;;2.92;1.37;;;;;;;12.24;80.73;100204.05;1706506;83;27723;-80
2022/05/22 05:42:12;;;;;;;3.27;1.40;;;;;;;12.26;80.66;100201.48;1700882;83;25999;-80
2022/05/22 05:44:39;;;;;;;2.33;1.20;;;;;;;12.30;80.70;100205.39;1693851;83;25852;-80
2022/05/22 05:47:13;;;;;;;4.75;1.02;;;;;;;12.34;80.37;100199.08;1676256;83;26558;-80
2022/05/22 05:49:41;;;;;;;3.72;1.37;;;;;;;12.32;80.03;100201.15;1683634;83;25951;-80
2022/05/22 05:52:24;;;;;;;6.25;3.87;;;;;;;12.29;79.97;100205.11;1699949;83;26988;-80
2022/05/22 05:54:53;;;;;;;2.83;1.40;;;;;;;12.28;80.23;100201.26;1705655;83;26458;-80
2022/05/22 05:57:34;;;;;;;3.22;1.75;;;;;;;12.27;79.71;100200.97;1633419;83;25849;-80
2022/05/22 06:00:00;;;;;;;1.57;1.30;;;;;;;12.24;79.96;100200.02;1692087;83;25853;-82
2022/05/22 06:02:28;;;;;;;1.17;1.07;;;;;;;12.26;80.10;100198.79;1714581;83;25837;-80
2022/05/22 06:04:55;;;;;;;2.08;1.10;;;;;;;12.29;80.07;100202.41;1703996;83;27636;-79
2022/05/22 06:07:21;;;;;;;1.75;1.27;;;;;;;12.34;80.23;100201.26;1688440;83;26484;-80
2022/05/22 06:09:48;;;;;;;2.62;1.30;;;;;;;12.42;80.24;100203.43;1708313;83;25796;-80
2022/05/22 06:12:17;;;;;;;2.22;1.30;;;;;;;12.49;79.70;100202.91;1701886;83;25875;-80
2022/05/22 06:14:51;;;;;;;3.58;0.82;;;;;;;12.51;79.62;100204.34;1692116;83;25750;-80
2022/05/22 06:17:19;;;;;;;2.67;1.02;;;;;;;12.55;79.31;100211.48;1692083;83;27528;-80
2022/05/22 06:19:55;;;;;;;2.10;1.20;;;;;;;12.52;79.23;100212.72;1701709;83;26505;-80
2022/05/22 06:22:27;;;;;;;1.52;1.10;;;;;;;12.54;79.40;100209.81;1712679;83;25745;-80
2022/05/22 06:24:55;;;;;;;3.30;0.98;;;;;;;12.58;79.46;100215.08;1681182;83;25878;-80
2022/05/22 06:27:23;;;;;;;1.47;0.98;;;;;;;12.63;79.16;100217.97;1703775;83;25834;-80
2022/05/22 06:29:54;;;;;;;1.32;1.22;;;;;;;12.70;79.52;100208.05;1690927;83;27484;-80
2022/05/22 06:32:23;;;;;;;3.17;1.20;;;;;;;12.81;79.60;100204.72;1694325;83;25927;-80
2022/05/22 06:35:09;;;;;;;5.30;2.08;;;;;;;12.89;79.15;100207.17;1623709;87;26651;-80
2022/05/22 06:37:46;;;;;;;3.22;1.15;;;;;;;12.89;78.37;100208.52;1684252;83;25942;-80
2022/05/22 06:40:27;;;;;;;3.43;1.27;;;;;;;12.86;77.85;100205.73;1680968;83;25953;-81
2022/05/22 06:42:59;;;;;;;2.47;1.20;;;;;;;12.80;77.98;100212.46;1702094;83;27650;-79
2022/05/22 06:45:28;;;;;;;1.45;1.20;;;;;;;12.78;77.98;100209.16;1676006;83;25852;-80
2022/05/22 06:48:07;;;;;;;4.50;1.52;;;;;;;12.78;77.76;100216.71;1698300;83;25875;-80
2022/05/22 06:50:52;;;;;;;2.90;1.37;;;;;;;12.78;77.75;100214.02;1700472;83;26469;-80
2022/05/22 06:53:23;;;;;;;2.87;1.40;;;;;;;12.80;78.08;100216.49;1680561;83;25931;-80
2022/05/22 06:55:56;;;;;;;1.37;1.20;;;;;;;12.79;77.60;100215.66;1703750;83;28236;-80
2022/05/22 06:58:35;;;;;;;2.67;1.20;;;;;;;12.76;77.82;100213.41;1703626;83;25915;-80
2022/05/22 07:01:18;;;;;;;3.77;1.25;;;;;;;12.76;78.32;100214.75;1634947;86;26684;-79
2022/05/22 07:03:46;;;;;;;1.47;1.37;;;;;;;12.75;77.70;100212.25;1676274;83;26469;-82
2022/05/22 07:06:29;;;;;;;1.60;1.50;;;;;;;12.75;77.89;100221.15;1671898;83;26025;-80
2022/05/22 07:08:57;;;;;;;5.47;1.80;;;;;;;12.77;77.59;100223.11;1617998;84;27546;-81
2022/05/22 07:11:40;;;;;;;1.70;1.50;;;;;;;12.72;77.45;100221.59;1655804;83;26053;-80
2022/05/22 07:14:18;;;;;;;6.05;2.08;;;;;;;12.70;78.00;100220.14;1648651;85;25948;-80
2022/05/22 07:16:55;;;;;;;2.95;1.45;;;;;;;12.68;77.82;100222.21;1631717;87;26556;-80
2022/05/22 07:19:23;;;;;;;1.80;1.42;;;;;;;12.62;77.33;100227.89;1682566;84;25953;-80
2022/05/22 07:21:51;;;;;;;1.60;1.40;;;;;;;12.55;77.60;100225.75;1678273;82;27487;-80
2022/05/22 07:24:19;;;;;;;2.83;1.90;;;;;;;12.54;77.87;100232.14;1637146;82;26531;-81
2022/05/22 07:26:53;;;;;;;1.90;1.50;;;;;;;12.54;78.20;100228.62;1692101;82;25841;-80
2022/05/22 07:29:21;;;;;;;4.00;2.12;;;;;;;12.57;78.26;100236.28;1630546;84;26020;-80
2022/05/22 07:32:06;;;;;;;1.90;1.65;;;;;;;12.57;78.00;100229.05;1688995;84;25778;-83
2022/05/22 07:34:47;;;;;;;;;;;;;;;12.60;78.29;100231.81;1682511;84;27489;-84
2022/05/22 07:37:18;;;;;;;3.33;1.75;;;;;;;12.63;77.92;100226.87;1675817;84;25836;-81
2022/05/22 07:39:49;;;;;;;2.27;1.67;;;;;;;12.58;77.98;100223.97;1677303;84;25961;-81
2022/05/22 07:42:26;;;;;;;2.85;1.80;;;;;;;12.58;78.02;100228.51;1654119;84;26606;-82
2022/05/22 07:44:57;;;;;;;2.83;1.47;;;;;;;12.57;78.36;100237.62;1654216;84;25705;-82
2022/05/22 07:47:25;;;;;;;2.22;1.98;;;;;;;12.57;78.67;100231.73;1662272;84;28324;-81
2022/05/22 07:52:50;;;;;;;4.17;3.77;;;;;;;12.61;79.47;100237.00;1631599;84;25821;-81
2022/05/22 07:55:31;;;;;;;1.95;1.85;;;;;;;12.63;79.34;100234.92;1676567;84;25852;-81
2022/05/22 07:58:18;;;;;;;1.70;1.47;;;;;;;12.69;78.84;100236.77;1675793;84;25781;-81
2022/05/22 08:00:48;;;;;;;3.92;1.82;;;;;;;12.73;78.85;100231.80;1677263;84;27549;-81
2022/05/22 08:03:18;;;;;;;4.60;1.72;;;;;;;12.84;78.74;100232.50;1674448;84;26171;-81
2022/05/22 08:05:52;;;;;;;4.45;2.40;;;;;;;12.94;78.89;100235.06;1675262;84;25734;-81
2022/05/22 08:08:18;;;;;;;3.95;2.10;;;;;;;13.05;78.74;100231.76;1664706;84;25943;-81
2022/05/22 08:10:59;;;;;;;2.20;2.00;;;;;;;13.18;78.42;100235.43;1689274;84;25854;-81
2022/05/22 08:13:27;;;;;;;4.42;1.65;;;;;;;13.27;78.75;100235.00;1676250;83;28082;-82
2022/05/22 08:15:54;;;;;;;3.58;2.10;;;;;;;13.32;77.41;100231.16;1679039;84;26465;-82
2022/05/22 08:18:24;;;;;;;;;;;;;;;13.35;77.18;100226.68;1700834;83;26031;-81
2022/05/22 08:20:52;;;;;;;3.70;1.62;;;;;;;13.37;77.05;100228.64;1674096;84;25842;-79
2022/05/22 08:23:22;;;;;;;3.58;2.00;;;;;;;13.42;76.15;100229.34;1664633;84;25618;-81
2022/05/22 08:25:50;;;;;;;2.40;1.55;;;;;;;13.51;76.83;100229.41;1663657;84;27718;-81
2022/05/22 08:28:17;;;;;;;2.00;1.40;;;;;;;13.66;76.80;100228.61;1664328;84;25860;-81
2022/05/22 08:30:44;;;;;;;2.98;1.72;;;;;;;13.77;75.94;100226.04;1668061;84;25761;-82
2022/05/22 08:33:11;;;;;;;1.87;1.40;;;;;;;13.89;75.41;100224.33;1675880;84;25766;-81
2022/05/22 08:35:40;;;;;;;3.10;1.60;;;;;;;13.90;74.45;100225.12;1667072;83;25349;-81
2022/05/22 08:38:07;;;;;;;2.02;1.40;;;;;;;13.96;73.40;100224.80;1674085;84;27630;-81
2022/05/22 08:40:54;;;;;;;3.05;1.45;;;;;;;14.02;73.89;100230.66;1676313;84;25920;-81
2022/05/22 08:43:44;;;;;;;3.10;1.32;;;;;;;14.02;73.42;100231.48;1678430;83;25877;-81
2022/05/22 08:46:18;;;;;;;1.60;1.30;;;;;;;13.97;72.40;100229.95;1664960;84;25820;-81
2022/05/22 08:48:57;;;;;;;2.55;1.37;;;;;;;14.12;73.54;100228.30;1681096;83;26229;-80
2022/05/22 08:51:29;;;;;;;1.90;1.17;;;;;;;14.35;73.04;100219.16;1687067;83;28219;-81
2022/05/22 08:54:01;;;;;;;1.95;1.07;;;;;;;14.56;71.62;100218.75;1674890;84;25937;-81
2022/05/22 08:59:02;;;;;;;;;;;;;;;14.43;70.19;100209.44;1661350;84;26695;-81
2022/05/22 09:02:01;;;;;;;1.65;1.12;;;;;;;14.32;69.54;100216.88;1692703;84;25785;-81
2022/05/22 09:04:55;;;;;;;1.80;1.40;;;;;;;14.20;69.73;100229.39;1676030;84;28352;-80
2022/05/22 09:07:29;;;;;;;4.00;1.50;;;;;;;14.14;69.27;100220.81;1683150;84;26089;-80
2022/05/22 09:10:07;;;;;;;3.35;1.62;;;;;;;14.08;70.52;100224.39;1670172;84;25384;-80
2022/05/22 09:12:48;;;;;;;1.10;1.00;;;;;;;14.15;71.01;100222.48;1670800;83;25832;-82
2022/05/22 09:15:40;;;;;;;;;;;;;;;14.35;71.24;100208.38;1675296;81;25734;-81
2022/05/22 09:18:33;;;;;;;4.78;1.50;;;;;;;14.64;71.60;100208.52;1629651;86;27567;-81
2022/05/22 09:21:26;;;;;;;2.47;1.22;;;;;;;14.86;70.09;100211.61;1609146;87;25863;-81
2022/05/22 09:24:03;;;;;;;1.32;1.10;;;;;;;14.93;67.51;100202.90;1637010;86;25350;-81
2022/05/22 09:26:46;;;;;;;1.05;0.95;;;;;;;14.85;68.00;100215.34;1626228;86;25991;-81
2022/05/22 09:29:37;;;;;;;1.30;0.90;;;;;;;14.82;68.22;100212.28;1647952;85;25917;-81
2022/05/22 09:32:14;;;;;;;5.57;1.30;;;;;;;14.77;67.23;100221.55;1640276;85;28287;-81
2022/05/22 09:35:20;;;;;;;2.35;0.80;;;;;;;14.67;67.65;100228.27;1653419;84;25342;-81
2022/05/22 09:38:01;;;;;;;1.15;0.78;;;;;;;14.78;67.62;100216.47;1665215;85;26170;-82
2022/05/22 09:40:56;;;;;;;2.87;1.35;;;;;;;14.83;67.57;100214.73;1590701;86;26006;-81
2022/05/22 09:44:05;;;;;;;2.55;0.90;;;;;;;14.94;65.04;100203.22;1635349;85;25969;-81
2022/05/22 09:47:24;;;;;;;1.22;0.70;;;;;;;15.09;67.03;100219.85;1596232;88;27462;-81
2022/05/22 09:50:17;;;;;;;5.03;1.22;;;;;;;15.40;66.46;100216.13;1616319;87;25336;-81
2022/05/22 09:53:07;;;;;;;1.80;0.90;;;;;;;15.54;65.64;100193.36;1609903;87;26031;-81
2022/05/22 09:55:44;;;;;;;1.05;0.90;;;;;;;15.60;63.77;100211.34;1639430;85;26350;-82
2022/05/22 09:58:31;;;;;;;1.95;0.98;;;;;;;15.43;62.29;100204.41;1639303;85;25779;-82
2022/05/22 10:01:18;;;;;;;1.50;0.85;;;;;;;15.28;62.52;100211.21;1639705;85;27484;-81
2022/05/22 10:04:20;;;;;;;1.30;1.00;;;;;;;15.14;61.89;100209.19;1655594;81;26749;31
2022/05/22 10:07:09;;;;;;;1.02;1.00;;;;;;;15.16;63.61;100211.13;1668968;84;25819;-81
2022/05/22 10:10:10;;;;;;;1.57;1.07;;;;;;;15.34;62.88;100203.03;1703291;81;26558;-81
2022/05/22 10:12:49;;;;;;;1.95;0.80;;;;;;;15.43;63.02;100207.63;1666374;84;25961;-80
2022/05/22 10:15:35;;;;;;;1.87;0.70;;;;;;;15.57;61.01;100206.39;1681591;83;27499;-81
2022/05/22 10:18:15;;;;;;;1.37;0.88;;;;;;;15.72;60.56;100200.05;1672449;84;25792;-81
2022/05/22 10:21:08;;;;;;;2.45;0.88;;;;;;;15.92;60.60;100202.47;1715928;83;25329;-81
2022/05/22 10:23:48;;;;;;;3.47;1.00;;;;;;;16.13;60.75;100197.87;1704940;83;25819;-81
2022/05/22 10:26:36;;;;;;;1.25;0.82;;;;;;;16.20;60.64;100195.89;1684176;84;25976;-81
2022/05/22 10:29:22;;;;;;;1.60;0.88;;;;;;;16.21;60.53;100201.05;1663398;85;28289;-80
2022/05/22 10:32:02;;;;;;;3.40;1.30;;;;;;;16.11;60.84;100198.11;1695042;80;26648;-81
2022/05/22 10:34:43;;;;;;;1.72;1.00;;;;;;;16.11;59.90;100190.52;1621090;87;25899;-80
2022/05/22 10:37:26;;;;;;;1.12;0.80;;;;;;;16.12;60.83;100186.78;1596851;87;26689;-81
2022/05/22 10:39:53;;;;;;;2.92;0.88;;;;;;;16.17;59.91;100190.42;1616364;86;25849;-80
2022/05/22 10:42:47;;;;;;;2.37;0.78;;;;;;;16.15;56.20;100187.13;1614533;87;27624;-79
2022/05/22 10:45:23;;;;;;;1.75;0.80;;;;;;;16.10;57.54;100186.19;1617590;87;26728;-80
2022/05/22 10:47:53;;;;;;;1.30;0.70;;;;;;;16.05;57.70;100186.89;1624864;87;25347;-81
2022/05/22 10:50:24;;;;;;;1.22;0.60;;;;;;;16.02;57.17;100200.02;1621755;87;25770;-80
2022/05/22 10:52:52;;;;;;;3.80;0.78;;;;;;;15.99;56.93;100195.92;1624515;86;25857;-80
2022/05/22 10:55:38;;;;;;;1.98;0.90;;;;;;;15.98;57.58;100199.66;1622826;87;27645;-80
2022/05/22 10:58:25;;;;;;;1.45;0.80;;;;;;;16.00;56.99;100191.32;1614105;87;25912;-81
2022/05/22 11:01:04;;;;;;;3.12;0.75;;;;;;;16.05;58.63;100204.45;1623203;87;26735;-81
2022/05/22 11:03:35;;;;;;;3.95;2.80;;;;;;;16.15;57.03;100203.34;1622055;86;25827;-81
2022/05/22 11:06:07;;;;;;;1.20;1.10;;;;;;;16.29;58.07;100203.13;1627451;88;25819;-81
2022/05/22 11:08:35;;;;;;;1.67;0.72;;;;;;;16.43;58.39;100192.38;1617051;87;27299;-80
2022/05/22 11:11:18;;;;;;;0.98;0.62;;;;;;;16.47;57.95;100197.08;1618828;87;25866;-81
2022/05/22 11:13:45;;;;;;;3.00;1.27;;;;;;;16.41;57.42;100187.73;1627930;87;25865;-80
2022/05/22 11:16:20;;;;;;;2.62;1.77;;;;;;;16.33;56.29;100189.44;1624239;87;25983;-79
2022/05/22 11:18:47;;;;;;;0.82;0.80;;;;;;;16.15;55.55;100195.75;1626917;87;25476;-81
2022/05/22 11:21:30;;;;;;;1.95;1.20;;;;;;;15.97;56.01;100203.95;1621627;86;28248;-81
2022/05/22 11:24:17;;;;;;;2.70;1.10;;;;;;;15.84;56.16;100209.03;1627200;86;25851;-80
2022/05/22 11:27:11;;;;;;;1.00;0.88;;;;;;;15.74;56.73;100216.84;1590771;88;25905;-80
2022/05/22 11:29:59;;;;;;;2.45;1.00;;;;;;;15.73;57.88;100215.73;1589501;88;25865;-80
2022/05/22 11:32:49;;;;;;;1.70;1.27;;;;;;;15.79;58.92;100218.34;1592195;88;25748;-80
2022/05/22 11:35:26;;;;;;;1.82;1.32;;;;;;;15.86;57.53;100216.89;1603055;88;27479;-80
2022/05/22 11:38:32;;;;;;;2.22;1.25;;;;;;;15.89;57.80;100216.42;1579150;89;25368;-80
2022/05/22 11:41:21;;;;;;;2.55;1.30;;;;;;;15.95;58.23;100210.92;1591861;88;25916;-81
2022/05/22 11:44:12;;;;;;;2.60;1.30;;;;;;;15.99;58.11;100208.08;1593649;87;25953;-80
2022/05/22 11:47:03;;;;;;;;;;;;;;;15.89;57.31;100209.66;1589804;88;25590;-81
2022/05/22 11:49:59;;;;;;;1.35;1.25;;;;;;;15.78;57.47;100209.92;1586955;88;27482;-81
2022/05/22 11:53:04;;;;;;;1.77;1.42;;;;;;;15.69;58.09;100214.55;1582617;88;25401;-82
2022/05/22 11:56:00;;;;;;;1.80;1.70;;;;;;;15.64;57.84;100213.05;1587671;88;25842;-80
2022/05/22 11:58:47;;;;;;;2.98;1.77;;;;;;;15.59;58.42;100215.62;1562527;88;25883;-81
2022/05/22 12:01:31;;;;;;;2.27;1.25;;;;;;;15.59;58.81;100214.28;1583672;88;25981;-81
2022/05/22 12:04:05;;;;;;;1.42;1.10;;;;;;;15.64;59.19;100215.23;1592932;88;27462;-81
2022/05/22 12:07:00;;;;;;;1.32;1.07;;;;;;;15.72;58.76;100213.55;1587525;88;25895;-81
2022/05/22 12:09:50;;;;;;;1.27;1.17;;;;;;;15.87;58.68;100213.13;1588782;88;25813;-81
2022/05/22 12:12:36;;;;;;;2.17;1.40;;;;;;;15.95;59.06;100212.27;1582242;88;25814;-81